Aérodrome :
LOGIN :

S'inscrire | Disclaimer

   EN    FR    IT 

 










Légende :    VFR   VFR Marginal   IFR   IFR Intensif   IFR Très Intensif
Visi : 
Plafond : 
>= 8 km
>= 3000ft
5 à 8 km
1000 à 3000 ft
1500m à 5 km
500 à 1000 ft
800 à 1500m
200 à 500 ft
< 800m
< 200 ft
Symboles :   Orages  Brouillard  Fortes neiges  Fortes précipitations  Vent > 20 kt
SIGMETs :   Divers  Orages  Givrage  Turbulence  Onde Orograph.  Cendres Volcan.







- Altitude de l'aérodrome : 870 ft
- Code IATA : ETZ
- Voir les cartes d'approche


LFJL - Metz Nancy Lorraine

DERNIER METAR :
  • 281000Z AUTO 22017KT 9999 -RA BKN011/// OVC019/// ///TCU 17/16 Q1001 TEMPO 4000 SHRA BKN012 SCT020CB

METARs EXPIRÉS :
  • 280930Z AUTO 21013KT 9999 -RA BKN013/// OVC020/// ///TCU 17/15 Q1001 TEMPO 4000 SHRA BKN012 SCT020CB
  • 280900Z AUTO 22015KT 9999 -RA BKN012/// OVC021/// 17/15 Q1001 BECMG NSC
  • 280830Z AUTO 21014KT 9999 -RA BKN018/// OVC023/// ///TCU 18/16 Q1001 BECMG NSC
  • 280800Z AUTO 21017KT 9999 BKN015/// OVC020/// 18/15 Q1001 NOSIG
  • 280730Z AUTO 21012KT 9999 BKN021/// OVC027/// 18/15 Q1000 NOSIG

TAF AMD TAF LFJL
Valide du 28 à 09h jusqu'au 29 à 06h UTC


280909Z 2809/2906 20012KT 9999 BKN025
TEMPO 2809/2811 4000 SHRA BKN012 SCT020CB
TEMPO 2815/2820 25010G20KT 4000 SHRA SCT030TCU
TEMPO 2900/2906 BKN009
Pas de NOTAMs connus pour ce terrain.



MET'MAP, la Météo Aéronautique d'un coup d'oeil ! - Copyright ORBIFLY Décembre 2007 - Disclaimer

ORBIFLY MET'MAP TEAM :

Programmation & Développement : Alexandra Zaïnal
Conception & Développement : Baudouin d'Aumeries
Co-Programmation & Développement : Marc-Olivier Méhu
Soutien technique & logistique : Manuel Goepfert

Contact : metmap@orbifly.com




SOURCES & CREDITS :

   NOAA